Challenge Prelude — VRQC9 — position and weather

sailwx.info

Track history (hours):
 
Tides and Currents Weather Stations Pressure Air Temp Water Temp Dewpoint Dewpoint Depression Visibility Wind Speed Wind Dir Waves Ship Positions

Challenge Prelude

Last reported at 2018-May-16 06:42 UTC. Time now 2018-May-23 22:06 UTC.
Position N 38°40' E 121°54'.

Length 179 m; draft 11.3 m.

Type: Tanker. MMSI: 477858900.

Date/timePositionNaut miles runAvg speedWind from/ knotsBaromVisibWave heightAir tempDewpointWater temp
2018-May-16 06:42N 38°40' E 121°54'212.4
2018-May-16 06:30N 38°42' E 121°53'712.5
2018-May-16 05:58N 38°47' E 121°48'510.8
2018-May-16 05:29N 38°52' E 121°44'6 6.8
2018-May-16 04:32N 38°57' E 121°41'0 8.2
2018-May-16 04:30N 38°57' E 121°41'1 0.0
2018-May-14 06:00N 38°58' E 121°39'1 0.3
2018-May-14 01:42N 38°58' E 121°41'0 0.0
2018-May-14 01:24N 38°58' E 121°41'0 0.0
2018-May-14 01:00N 38°58' E 121°41'0 0.0
2018-May-14 00:30N 38°58' E 121°41'0 0.0
2018-May-13 18:18N 38°58' E 121°41'0 0.1
2018-May-13 18:00N 38°58' E 121°41'0 0.0
2018-May-13 17:24N 38°58' E 121°41'0 0.0
2018-May-13 16:57N 38°58' E 121°41'0 0.0
2018-May-13 16:21N 38°58' E 121°41'0 0.0
2018-May-13 15:24N 38°58' E 121°41'0 0.0
2018-May-13 03:42N 38°58' E 121°41'0 0.0
2018-May-13 03:30N 38°58' E 121°41'0 0.0
2018-May-13 03:00N 38°58' E 121°41'0 0.0
2018-May-13 02:27N 38°58' E 121°41'0 0.0
2018-May-13 00:21N 38°58' E 121°41'0 0.0
2018-May-12 23:54N 38°58' E 121°41'0 0.0
2018-May-12 23:30N 38°58' E 121°41'0 0.0
2018-May-12 14:42N 38°58' E 121°41'0 0.0
2018-May-12 02:36N 38°58' E 121°41'0 0.0
2018-May-12 01:30N 38°58' E 121°41'0 0.0
2018-May-12 00:57N 38°58' E 121°41'0 0.0
2018-May-11 23:54N 38°58' E 121°41'0 0.0
2018-May-11 14:51N 38°58' E 121°41'0 0.0
2018-May-11 13:24N 38°58' E 121°41'8 0.9
2018-May-11 04:17N 38°52' E 121°48'2 7.9
2018-May-11 04:00N 38°50' E 121°49'  
Track history (hours):
 
Tides and Currents Weather Stations Pressure Air Temp Water Temp Dewpoint Dewpoint Depression Visibility Wind Speed Wind Dir Waves Ship Positions

Challenge Prelude

Last reported at 2018-May-16 06:42 UTC. Time now 2018-May-23 22:06 UTC.
Position N 38°40' E 121°54'.

Length 179 m; draft 11.3 m.

Type: Tanker. MMSI: 477858900.

Date/timePositionNaut miles runAvg speedWind from/ knotsBaromVisibWave heightAir tempDewpointWater temp
2018-May-16 06:42N 38°40' E 121°54'212.4
2018-May-16 06:30N 38°42' E 121°53'712.5
2018-May-16 05:58N 38°47' E 121°48'510.8
2018-May-16 05:29N 38°52' E 121°44'6 6.8
2018-May-16 04:32N 38°57' E 121°41'0 8.2
2018-May-16 04:30N 38°57' E 121°41'1 0.0
2018-May-14 06:00N 38°58' E 121°39'1 0.3
2018-May-14 01:42N 38°58' E 121°41'0 0.0
2018-May-14 01:24N 38°58' E 121°41'0 0.0
2018-May-14 01:00N 38°58' E 121°41'0 0.0
2018-May-14 00:30N 38°58' E 121°41'0 0.0
2018-May-13 18:18N 38°58' E 121°41'0 0.1
2018-May-13 18:00N 38°58' E 121°41'0 0.0
2018-May-13 17:24N 38°58' E 121°41'0 0.0
2018-May-13 16:57N 38°58' E 121°41'0 0.0
2018-May-13 16:21N 38°58' E 121°41'0 0.0
2018-May-13 15:24N 38°58' E 121°41'0 0.0
2018-May-13 03:42N 38°58' E 121°41'0 0.0
2018-May-13 03:30N 38°58' E 121°41'0 0.0
2018-May-13 03:00N 38°58' E 121°41'0 0.0
2018-May-13 02:27N 38°58' E 121°41'0 0.0
2018-May-13 00:21N 38°58' E 121°41'0 0.0
2018-May-12 23:54N 38°58' E 121°41'0 0.0
2018-May-12 23:30N 38°58' E 121°41'0 0.0
2018-May-12 14:42N 38°58' E 121°41'0 0.0
2018-May-12 02:36N 38°58' E 121°41'0 0.0
2018-May-12 01:30N 38°58' E 121°41'0 0.0
2018-May-12 00:57N 38°58' E 121°41'0 0.0
2018-May-11 23:54N 38°58' E 121°41'0 0.0
2018-May-11 14:51N 38°58' E 121°41'0 0.0
2018-May-11 13:24N 38°58' E 121°41'8 0.9
2018-May-11 04:17N 38°52' E 121°48'2 7.9
2018-May-11 04:00N 38°50' E 121°49'  

Dump ship's entire track history